首页
METAR-TAF:

METAR-TAF

机场 :

巴勒莫, 意大利

纬度: 38-11N, 经度: 013-06E, 海拔: 21米

当前天气观测

该预报发布于24分钟前的21:50 UTC
风速7节,风向西转西北
温度 14°C
湿度 82%
气压 1021 hPa
能见度10公里或以上
多云层高于2000英尺

METAR: LICJ 262150Z 30007KT 9999 BKN020 14/11 Q1021

时间: 23:14 (22:14 UTC)

预报

该预报发布于5小时和14分钟前的17:00 UTC
预报有效从26日的 18点(UTC)到 27日的 18点(UTC)
风速8节,风向西南
能见度10公里或以上
少量云层高于3000英尺
短暂存在
从 26日的 21点(UTC)到 26日的 24点(UTC)
能見度: 4000

TAF: LICJ 261700Z 2618/2718 23008KT 9999 FEW030 TEMPO 2621/2624 4000 RA

超过4000个机场的气象观测和天气预报(METAR&TAF报告)。

可查询的气象台以黄色和红色小点在地图上表示。

将鼠标移到小点上方,可查看气象台名称。

然后点击查看天气观测和预报。

如需切换地图:点击带黑十字的绿色按钮放大地图;点击带横线的绿色按钮缩小地图;或者点击绿色箭头查看邻近地区的地图。


METAR-TAF: